createdAt,value
2018-12-31T00:27:17.041Z,1028.07
2018-12-31T00:27:17.616Z,1028.01
2018-12-31T00:27:18.214Z,1028.06
2018-12-31T00:27:18.815Z,1028.05
2018-12-31T00:27:19.415Z,1028.05
2018-12-31T00:27:20.014Z,1028.07
2018-12-31T00:27:20.614Z,1028.03
2018-12-31T00:27:21.214Z,1028.06
2018-12-31T00:28:14.670Z,1028.09
2018-12-31T00:28:15.267Z,1028.04
2018-12-31T00:28:15.866Z,1028.04
2018-12-31T00:28:16.467Z,1028.01
2018-12-31T00:28:17.067Z,1028.01
2018-12-31T00:28:17.669Z,1028.02
2018-12-31T00:28:18.267Z,1028.03
2018-12-31T00:28:18.868Z,1027.98
2018-12-31T00:29:13.350Z,1028.10
2018-12-31T00:29:13.943Z,1028.05
2018-12-31T00:29:14.542Z,1028.04
2018-12-31T00:29:15.142Z,1028.03
2018-12-31T00:29:15.740Z,1028.03
2018-12-31T00:29:16.341Z,1028.01
2018-12-31T00:29:16.942Z,1028.00
2018-12-31T00:29:17.540Z,1027.96
2018-12-31T00:30:11.022Z,1028.02
2018-12-31T00:30:11.597Z,1028.02
2018-12-31T00:30:12.196Z,1028.03
2018-12-31T00:30:12.795Z,1028.05
2018-12-31T00:30:13.396Z,1028.01
2018-12-31T00:30:13.995Z,1028.00
2018-12-31T00:30:14.594Z,1027.96
2018-12-31T00:30:15.197Z,1028.03
2018-12-31T00:31:08.651Z,1028.03
2018-12-31T00:31:09.249Z,1028.03
2018-12-31T00:31:09.848Z,1028.05
2018-12-31T00:31:10.450Z,1028.04
2018-12-31T00:31:11.049Z,1027.98
2018-12-31T00:31:11.648Z,1027.98
2018-12-31T00:31:12.250Z,1028.01
2018-12-31T00:31:12.848Z,1027.99
2018-12-31T00:32:07.325Z,1028.05
2018-12-31T00:32:07.924Z,1028.02
2018-12-31T00:32:08.524Z,1027.98
2018-12-31T00:32:09.124Z,1027.97
2018-12-31T00:32:09.736Z,1028.01
2018-12-31T00:32:10.322Z,1028.01
2018-12-31T00:32:10.923Z,1028.02
2018-12-31T00:32:11.525Z,1028.01
2018-12-31T00:33:04.979Z,1028.05
2018-12-31T00:33:05.578Z,1028.03
2018-12-31T00:33:06.181Z,1028.03
2018-12-31T00:33:06.775Z,1028.01
2018-12-31T00:33:07.378Z,1028.03
2018-12-31T00:33:07.976Z,1028.04
2018-12-31T00:33:08.576Z,1028.01
2018-12-31T00:33:09.176Z,1027.98
2018-12-31T00:34:03.656Z,1028.05
2018-12-31T00:34:04.253Z,1028.00
2018-12-31T00:34:04.855Z,1028.02
2018-12-31T00:34:05.452Z,1028.01
2018-12-31T00:34:06.051Z,1027.98
2018-12-31T00:34:06.650Z,1028.01
2018-12-31T00:34:07.251Z,1027.99
2018-12-31T00:34:07.850Z,1027.98
2018-12-31T00:35:01.341Z,1028.06
2018-12-31T00:35:01.906Z,1028.05
2018-12-31T00:35:02.505Z,1028.02
2018-12-31T00:35:03.105Z,1028.03
2018-12-31T00:35:03.705Z,1028.02
2018-12-31T00:35:04.304Z,1028.01
2018-12-31T00:35:04.906Z,1028.03
2018-12-31T00:35:05.504Z,1028.00
2018-12-31T00:35:58.963Z,1028.08
2018-12-31T00:35:59.556Z,1028.09
2018-12-31T00:36:00.156Z,1028.03
2018-12-31T00:36:00.757Z,1028.04
2018-12-31T00:36:01.355Z,1028.00
2018-12-31T00:36:01.955Z,1027.99
2018-12-31T00:36:02.554Z,1028.05
2018-12-31T00:36:03.155Z,1028.02
2018-12-31T00:36:56.611Z,1028.11
2018-12-31T00:36:57.208Z,1028.03
2018-12-31T00:36:57.809Z,1028.05
2018-12-31T00:36:58.409Z,1028.09
2018-12-31T00:36:59.009Z,1028.06
2018-12-31T00:36:59.608Z,1028.05
2018-12-31T00:37:00.208Z,1028.04
2018-12-31T00:37:00.807Z,1028.03
2018-12-31T00:37:54.264Z,1028.07
2018-12-31T00:37:54.859Z,1028.06
2018-12-31T00:37:55.460Z,1028.09
2018-12-31T00:37:56.063Z,1028.08
2018-12-31T00:37:56.659Z,1028.06
2018-12-31T00:37:57.262Z,1028.07
2018-12-31T00:37:57.859Z,1028.06
2018-12-31T00:37:58.458Z,1028.06
2018-12-31T00:38:52.939Z,1028.13
2018-12-31T00:38:53.535Z,1028.10
2018-12-31T00:38:54.136Z,1028.09
2018-12-31T00:38:54.737Z,1028.05
2018-12-31T00:38:55.336Z,1028.08
2018-12-31T00:38:55.935Z,1028.07
2018-12-31T00:38:56.535Z,1028.09
2018-12-31T00:38:57.135Z,1028.07
2018-12-31T00:39:51.614Z,1028.14
2018-12-31T00:39:52.211Z,1028.06
2018-12-31T00:39:52.812Z,1028.07
2018-12-31T00:39:53.411Z,1028.07
2018-12-31T00:39:54.010Z,1028.08
2018-12-31T00:39:54.611Z,1028.08
2018-12-31T00:39:55.211Z,1028.09
2018-12-31T00:39:55.811Z,1028.06
2018-12-31T00:40:49.293Z,1028.13
2018-12-31T00:40:49.864Z,1028.12
2018-12-31T00:40:50.463Z,1028.12
2018-12-31T00:40:51.063Z,1028.11
2018-12-31T00:40:51.666Z,1028.12
2018-12-31T00:40:52.263Z,1028.10
2018-12-31T00:40:52.863Z,1028.10
2018-12-31T00:40:53.463Z,1028.06
2018-12-31T00:41:46.918Z,1028.16
2018-12-31T00:41:47.516Z,1028.15
2018-12-31T00:41:48.116Z,1028.13
2018-12-31T00:41:48.716Z,1028.10
2018-12-31T00:41:49.318Z,1028.13
2018-12-31T00:41:49.915Z,1028.13
2018-12-31T00:41:50.518Z,1028.10
2018-12-31T00:41:51.115Z,1028.11
2018-12-31T00:42:45.592Z,1028.16
2018-12-31T00:42:46.189Z,1028.15
2018-12-31T00:42:46.792Z,1028.12
2018-12-31T00:42:47.390Z,1028.13
2018-12-31T00:42:47.993Z,1028.12
2018-12-31T00:42:48.592Z,1028.13
2018-12-31T00:42:49.190Z,1028.07
2018-12-31T00:42:49.789Z,1028.14
2018-12-31T00:43:43.247Z,1028.20
2018-12-31T00:43:43.844Z,1028.20
2018-12-31T00:43:44.446Z,1028.17
2018-12-31T00:43:45.043Z,1028.14
2018-12-31T00:43:45.645Z,1028.14
2018-12-31T00:43:46.243Z,1028.16
2018-12-31T00:43:46.842Z,1028.15
2018-12-31T00:43:47.444Z,1028.14
2018-12-31T00:44:40.898Z,1028.21
2018-12-31T00:44:41.495Z,1028.16
2018-12-31T00:44:42.094Z,1028.18
2018-12-31T00:44:42.695Z,1028.17
2018-12-31T00:44:43.295Z,1028.17
2018-12-31T00:44:43.895Z,1028.16
2018-12-31T00:44:44.495Z,1028.18
2018-12-31T00:44:45.095Z,1028.15
2018-12-31T00:45:38.573Z,1028.21
2018-12-31T00:45:39.147Z,1028.18
2018-12-31T00:45:39.750Z,1028.21
2018-12-31T00:45:40.348Z,1028.21
2018-12-31T00:45:40.946Z,1028.16
2018-12-31T00:45:41.547Z,1028.11
2018-12-31T00:45:42.147Z,1028.16
2018-12-31T00:45:42.746Z,1028.16
2018-12-31T00:46:37.226Z,1028.20
2018-12-31T00:46:37.822Z,1028.22
2018-12-31T00:46:38.421Z,1028.19
2018-12-31T00:46:39.022Z,1028.16
2018-12-31T00:46:39.675Z,1028.15
2018-12-31T00:46:40.221Z,1028.19
2018-12-31T00:46:40.821Z,1028.16
2018-12-31T00:46:41.420Z,1028.16
2018-12-31T00:47:34.877Z,1028.24
2018-12-31T00:47:35.473Z,1028.22
2018-12-31T00:47:36.074Z,1028.24
2018-12-31T00:47:36.674Z,1028.25
2018-12-31T00:47:37.275Z,1028.20
2018-12-31T00:47:37.875Z,1028.21
2018-12-31T00:47:38.473Z,1028.20
2018-12-31T00:47:39.073Z,1028.20
2018-12-31T00:48:32.529Z,1028.25
2018-12-31T00:48:33.126Z,1028.23
2018-12-31T00:48:33.729Z,1028.19
2018-12-31T00:48:34.329Z,1028.24
2018-12-31T00:48:34.927Z,1028.18
2018-12-31T00:48:35.526Z,1028.17
2018-12-31T00:48:36.126Z,1028.19
2018-12-31T00:48:36.728Z,1028.24
2018-12-31T00:49:31.203Z,1028.24
2018-12-31T00:49:31.802Z,1028.20
2018-12-31T00:49:32.400Z,1028.23
2018-12-31T00:49:33.001Z,1028.23
2018-12-31T00:49:33.600Z,1028.24
2018-12-31T00:49:34.202Z,1028.21
2018-12-31T00:49:34.800Z,1028.21
2018-12-31T00:49:35.400Z,1028.21
2018-12-31T00:50:29.879Z,1028.24
2018-12-31T00:50:30.475Z,1028.21
2018-12-31T00:50:31.076Z,1028.19
2018-12-31T00:50:31.676Z,1028.20
2018-12-31T00:50:32.276Z,1028.22
2018-12-31T00:50:32.876Z,1028.23
2018-12-31T00:50:33.476Z,1028.20
2018-12-31T00:50:34.076Z,1028.22
2018-12-31T00:51:28.579Z,1028.26
2018-12-31T00:51:29.152Z,1028.23
2018-12-31T00:51:29.754Z,1028.24
2018-12-31T00:51:30.351Z,1028.19
2018-12-31T00:51:30.952Z,1028.20
2018-12-31T00:51:31.553Z,1028.20
2018-12-31T00:51:32.154Z,1028.21
2018-12-31T00:51:32.754Z,1028.21
2018-12-31T00:52:26.209Z,1028.23
2018-12-31T00:52:26.806Z,1028.21
2018-12-31T00:52:27.404Z,1028.20
2018-12-31T00:52:28.006Z,1028.22
2018-12-31T00:52:28.604Z,1028.21
2018-12-31T00:52:29.205Z,1028.19
2018-12-31T00:52:29.804Z,1028.20
2018-12-31T00:52:30.404Z,1028.19
2018-12-31T00:53:23.861Z,1028.21
2018-12-31T00:53:24.456Z,1028.16
2018-12-31T00:53:25.059Z,1028.17
2018-12-31T00:53:25.656Z,1028.17
2018-12-31T00:53:26.255Z,1028.19
2018-12-31T00:53:26.856Z,1028.19
2018-12-31T00:53:27.457Z,1028.18
2018-12-31T00:53:28.055Z,1028.16
2018-12-31T00:54:22.535Z,1028.20
2018-12-31T00:54:23.132Z,1028.20
2018-12-31T00:54:23.732Z,1028.16
2018-12-31T00:54:24.333Z,1028.18
2018-12-31T00:54:25.021Z,1028.14
2018-12-31T00:54:25.531Z,1028.15
2018-12-31T00:54:26.132Z,1028.13
2018-12-31T00:54:26.733Z,1028.14
2018-12-31T00:55:20.189Z,1028.20
2018-12-31T00:55:20.784Z,1028.21
2018-12-31T00:55:21.384Z,1028.15
2018-12-31T00:55:21.988Z,1028.16
2018-12-31T00:55:22.584Z,1028.14
2018-12-31T00:55:23.186Z,1028.16
2018-12-31T00:55:23.783Z,1028.13
2018-12-31T00:55:24.385Z,1028.16
2018-12-31T00:56:17.866Z,1028.19
2018-12-31T00:56:18.442Z,1028.17
2018-12-31T00:56:19.036Z,1028.16
2018-12-31T00:56:19.636Z,1028.15
2018-12-31T00:56:20.236Z,1028.17
2018-12-31T00:56:20.836Z,1028.15
2018-12-31T00:56:21.437Z,1028.18
2018-12-31T00:56:22.034Z,1028.15
2018-12-31T00:57:16.517Z,1028.20
2018-12-31T00:57:17.112Z,1028.18
2018-12-31T00:57:17.711Z,1028.16
2018-12-31T00:57:18.310Z,1028.20
2018-12-31T00:57:18.911Z,1028.14
2018-12-31T00:57:19.511Z,1028.16
2018-12-31T00:57:20.109Z,1028.14
2018-12-31T00:57:20.710Z,1028.14
2018-12-31T00:58:14.167Z,1028.19
2018-12-31T00:58:14.763Z,1028.18
2018-12-31T00:58:15.363Z,1028.17
2018-12-31T00:58:15.964Z,1028.18
2018-12-31T00:58:16.563Z,1028.19
2018-12-31T00:58:17.163Z,1028.16
2018-12-31T00:58:17.762Z,1028.16
2018-12-31T00:58:18.362Z,1028.15
2018-12-31T00:59:11.825Z,1028.24
2018-12-31T00:59:12.415Z,1028.18
2018-12-31T00:59:13.016Z,1028.19
2018-12-31T00:59:13.614Z,1028.18
2018-12-31T00:59:14.215Z,1028.17
2018-12-31T00:59:14.815Z,1028.19
2018-12-31T00:59:15.415Z,1028.16
2018-12-31T00:59:16.016Z,1028.18
2018-12-31T01:00:09.469Z,1028.21
2018-12-31T01:00:10.067Z,1028.21
2018-12-31T01:00:10.667Z,1028.19
2018-12-31T01:00:11.267Z,1028.20
2018-12-31T01:00:11.866Z,1028.20
2018-12-31T01:00:12.468Z,1028.20
2018-12-31T01:00:13.069Z,1028.20
2018-12-31T01:00:13.667Z,1028.18
2018-12-31T01:01:08.169Z,1028.21
2018-12-31T01:01:08.742Z,1028.20
2018-12-31T01:01:09.341Z,1028.18
2018-12-31T01:01:09.941Z,1028.18
2018-12-31T01:01:10.542Z,1028.18
2018-12-31T01:01:11.140Z,1028.16
2018-12-31T01:01:11.740Z,1028.14
2018-12-31T01:01:12.342Z,1028.17
2018-12-31T01:02:05.796Z,1028.23
2018-12-31T01:02:06.393Z,1028.20
2018-12-31T01:02:06.994Z,1028.22
2018-12-31T01:02:07.593Z,1028.20
2018-12-31T01:02:08.194Z,1028.16
2018-12-31T01:02:08.793Z,1028.18
2018-12-31T01:02:09.393Z,1028.17
2018-12-31T01:02:09.993Z,1028.14
2018-12-31T01:03:04.471Z,1028.25
2018-12-31T01:03:05.071Z,1028.23
2018-12-31T01:03:05.668Z,1028.24
2018-12-31T01:03:06.268Z,1028.20
2018-12-31T01:03:06.871Z,1028.25
2018-12-31T01:03:07.469Z,1028.22
2018-12-31T01:03:08.068Z,1028.21
2018-12-31T01:03:08.670Z,1028.18
2018-12-31T01:04:03.148Z,1028.22
2018-12-31T01:04:03.747Z,1028.21
2018-12-31T01:04:04.350Z,1028.18
2018-12-31T01:04:04.946Z,1028.18
2018-12-31T01:04:05.544Z,1028.18
2018-12-31T01:04:06.144Z,1028.17
2018-12-31T01:04:06.745Z,1028.19
2018-12-31T01:04:07.344Z,1028.14
2018-12-31T01:05:02.361Z,1028.19
2018-12-31T01:05:02.927Z,1028.15
2018-12-31T01:05:03.527Z,1028.13
2018-12-31T01:05:04.127Z,1028.16
2018-12-31T01:05:04.727Z,1028.15
2018-12-31T01:05:05.328Z,1028.14
2018-12-31T01:05:05.926Z,1028.13
2018-12-31T01:06:00.392Z,1028.19
2018-12-31T01:06:00.989Z,1028.18
2018-12-31T01:06:01.589Z,1028.17
2018-12-31T01:06:02.191Z,1028.16
2018-12-31T01:06:02.791Z,1028.15
2018-12-31T01:06:03.388Z,1028.18
2018-12-31T01:06:03.988Z,1028.17
2018-12-31T01:06:04.588Z,1028.15
2018-12-31T01:06:59.067Z,1028.22
2018-12-31T01:06:59.666Z,1028.15
2018-12-31T01:07:00.265Z,1028.17
2018-12-31T01:07:00.865Z,1028.19
2018-12-31T01:07:01.466Z,1028.16
2018-12-31T01:07:02.065Z,1028.16
2018-12-31T01:07:02.664Z,1028.17
2018-12-31T01:07:03.265Z,1028.18
2018-12-31T01:07:57.743Z,1028.22
2018-12-31T01:07:58.340Z,1028.19
2018-12-31T01:07:58.941Z,1028.19
2018-12-31T01:07:59.542Z,1028.22
2018-12-31T01:08:00.140Z,1028.21
2018-12-31T01:08:00.739Z,1028.17
2018-12-31T01:08:01.341Z,1028.17
2018-12-31T01:08:01.943Z,1028.17
2018-12-31T01:11:24.297Z,1028.23
2018-12-31T01:11:24.870Z,1028.19
2018-12-31T01:11:25.471Z,1028.23
2018-12-31T01:11:26.071Z,1028.22
2018-12-31T01:11:26.669Z,1028.19
2018-12-31T01:11:27.268Z,1028.20
2018-12-31T01:11:27.871Z,1028.20
2018-12-31T01:11:28.468Z,1028.15
2018-12-31T01:11:29.068Z,1028.18
2018-12-31T01:11:29.669Z,1028.17
2018-12-31T01:11:30.277Z,1028.17
2018-12-31T01:11:30.868Z,1028.18
2018-12-31T01:12:26.340Z,1028.24
2018-12-31T01:12:26.943Z,1028.19
2018-12-31T01:12:27.538Z,1028.20
2018-12-31T01:12:28.138Z,1028.20
2018-12-31T01:12:28.737Z,1028.21
2018-12-31T01:12:29.340Z,1028.20
2018-12-31T01:12:29.938Z,1028.18
2018-12-31T01:13:44.473Z,1028.19
2018-12-31T01:13:45.070Z,1028.23
2018-12-31T01:13:45.669Z,1028.18
2018-12-31T01:13:46.269Z,1028.20
2018-12-31T01:13:46.868Z,1028.17
2018-12-31T01:13:47.474Z,1028.15
2018-12-31T01:13:48.070Z,1028.15
2018-12-31T01:13:48.671Z,1028.21
2018-12-31T01:14:42.126Z,1028.23
2018-12-31T01:14:42.726Z,1028.19
2018-12-31T01:14:43.322Z,1028.21
2018-12-31T01:14:43.923Z,1028.20
2018-12-31T01:14:44.522Z,1028.19
2018-12-31T01:14:45.125Z,1028.18
2018-12-31T01:14:45.723Z,1028.18
2018-12-31T01:14:46.323Z,1028.13
2018-12-31T01:15:39.776Z,1028.21
2018-12-31T01:15:40.377Z,1028.16
2018-12-31T01:15:40.974Z,1028.17
2018-12-31T01:15:41.574Z,1028.17
2018-12-31T01:15:42.174Z,1028.18
2018-12-31T01:15:42.774Z,1028.17
2018-12-31T01:15:43.373Z,1028.19
2018-12-31T01:15:43.973Z,1028.15
2018-12-31T01:16:37.451Z,1028.17
2018-12-31T01:16:38.025Z,1028.17
2018-12-31T01:16:38.626Z,1028.20
2018-12-31T01:16:39.230Z,1028.20
2018-12-31T01:16:39.826Z,1028.18
2018-12-31T01:16:40.427Z,1028.17
2018-12-31T01:16:41.025Z,1028.14
2018-12-31T01:16:41.626Z,1028.14
2018-12-31T01:17:35.081Z,1028.20
2018-12-31T01:17:35.676Z,1028.21
2018-12-31T01:17:36.278Z,1028.20
2018-12-31T01:17:36.879Z,1028.18
2018-12-31T01:17:37.478Z,1028.17
2018-12-31T01:17:38.077Z,1028.21
2018-12-31T01:17:38.678Z,1028.20
2018-12-31T01:17:39.275Z,1028.20
2018-12-31T01:18:33.242Z,1028.20
2018-12-31T01:18:33.845Z,1028.21
2018-12-31T01:18:34.442Z,1028.25
2018-12-31T01:18:35.045Z,1028.21
2018-12-31T01:18:35.639Z,1028.26
2018-12-31T01:18:36.240Z,1028.22
2018-12-31T01:18:36.839Z,1028.22
2018-12-31T01:19:31.309Z,1028.20
2018-12-31T01:19:31.902Z,1028.22
2018-12-31T01:19:32.501Z,1028.23
2018-12-31T01:19:33.100Z,1028.23
2018-12-31T01:19:33.700Z,1028.20
2018-12-31T01:19:34.300Z,1028.23
2018-12-31T01:19:34.943Z,1028.22
2018-12-31T01:19:35.499Z,1028.23
2018-12-31T01:20:29.979Z,1028.25
2018-12-31T01:20:30.577Z,1028.22
2018-12-31T01:20:31.177Z,1028.21
2018-12-31T01:20:31.779Z,1028.25
2018-12-31T01:20:32.378Z,1028.23
2018-12-31T01:20:32.978Z,1028.25
2018-12-31T01:20:33.576Z,1028.24
2018-12-31T01:20:34.177Z,1028.21
2018-12-31T01:21:28.656Z,1028.27
2018-12-31T01:21:29.254Z,1028.22
2018-12-31T01:21:29.854Z,1028.25
2018-12-31T01:21:30.456Z,1028.26
2018-12-31T01:21:31.052Z,1028.27
2018-12-31T01:21:31.653Z,1028.24
2018-12-31T01:21:32.254Z,1028.24
2018-12-31T01:21:32.858Z,1028.23
2018-12-31T01:22:27.362Z,1028.28
2018-12-31T01:22:27.928Z,1028.23
2018-12-31T01:22:28.527Z,1028.25
2018-12-31T01:22:29.129Z,1028.22
2018-12-31T01:22:29.728Z,1028.25
2018-12-31T01:22:30.328Z,1028.23
2018-12-31T01:22:30.927Z,1028.23
2018-12-31T01:22:31.529Z,1028.25
2018-12-31T01:23:26.009Z,1028.26
2018-12-31T01:23:26.606Z,1028.24
2018-12-31T01:23:27.204Z,1028.27
2018-12-31T01:23:27.804Z,1028.24
2018-12-31T01:23:28.404Z,1028.26
2018-12-31T01:23:29.003Z,1028.28
2018-12-31T01:23:29.604Z,1028.26
2018-12-31T01:23:30.202Z,1028.26
2018-12-31T01:24:24.683Z,1028.26
2018-12-31T01:24:25.279Z,1028.27
2018-12-31T01:24:25.883Z,1028.24
2018-12-31T01:24:26.483Z,1028.27
2018-12-31T01:24:27.080Z,1028.27
2018-12-31T01:24:27.679Z,1028.27
2018-12-31T01:24:28.280Z,1028.27
2018-12-31T01:24:28.879Z,1028.25
2018-12-31T01:25:23.358Z,1028.28
2018-12-31T01:25:23.956Z,1028.23
2018-12-31T01:25:24.556Z,1028.28
2018-12-31T01:25:25.156Z,1028.24
2018-12-31T01:25:25.755Z,1028.26
2018-12-31T01:25:26.355Z,1028.28
2018-12-31T01:25:26.956Z,1028.26
2018-12-31T01:25:27.555Z,1028.27
2018-12-31T01:26:22.034Z,1028.32
2018-12-31T01:26:22.634Z,1028.30
2018-12-31T01:26:23.231Z,1028.29
2018-12-31T01:26:23.832Z,1028.24
2018-12-31T01:26:24.431Z,1028.29
2018-12-31T01:26:25.031Z,1028.26
2018-12-31T01:26:25.629Z,1028.26
2018-12-31T01:26:26.232Z,1028.29
2018-12-31T01:27:20.712Z,1028.29
2018-12-31T01:27:21.308Z,1028.25
2018-12-31T01:27:21.906Z,1028.26
2018-12-31T01:27:22.507Z,1028.25
2018-12-31T01:27:23.107Z,1028.23
2018-12-31T01:27:23.706Z,1028.26
2018-12-31T01:27:24.307Z,1028.23
2018-12-31T01:27:24.907Z,1028.26
2018-12-31T01:28:18.392Z,1028.26
2018-12-31T01:28:18.960Z,1028.30
2018-12-31T01:28:19.564Z,1028.25
2018-12-31T01:28:20.159Z,1028.27
2018-12-31T01:28:20.759Z,1028.24
2018-12-31T01:28:21.360Z,1028.24
2018-12-31T01:28:21.959Z,1028.23
2018-12-31T01:28:22.563Z,1028.26
2018-12-31T01:29:16.018Z,1028.26
2018-12-31T01:29:16.612Z,1028.27
2018-12-31T01:29:17.211Z,1028.26
2018-12-31T01:29:17.812Z,1028.26
2018-12-31T01:29:18.414Z,1028.27
2018-12-31T01:29:19.012Z,1028.27
2018-12-31T01:29:19.610Z,1028.25
2018-12-31T01:29:20.210Z,1028.25
2018-12-31T01:30:14.689Z,1028.27
2018-12-31T01:30:15.287Z,1028.24
2018-12-31T01:30:15.887Z,1028.26
2018-12-31T01:30:16.488Z,1028.24
2018-12-31T01:30:17.088Z,1028.23
2018-12-31T01:30:17.685Z,1028.25
2018-12-31T01:30:18.286Z,1028.30
2018-12-31T01:30:18.885Z,1028.25
2018-12-31T01:31:12.341Z,1028.24
2018-12-31T01:31:12.941Z,1028.26
2018-12-31T01:31:13.539Z,1028.25
2018-12-31T01:31:14.138Z,1028.26
2018-12-31T01:31:14.739Z,1028.27
2018-12-31T01:31:15.338Z,1028.24
2018-12-31T01:31:15.937Z,1028.25
2018-12-31T01:31:16.538Z,1028.21
2018-12-31T01:32:11.016Z,1028.24
2018-12-31T01:32:11.615Z,1028.26
2018-12-31T01:32:12.213Z,1028.30
2018-12-31T01:32:12.815Z,1028.27
2018-12-31T01:32:13.415Z,1028.26
2018-12-31T01:32:14.013Z,1028.26
2018-12-31T01:32:14.613Z,1028.24
2018-12-31T01:32:15.214Z,1028.24
2018-12-31T01:33:08.669Z,1028.25
2018-12-31T01:33:09.265Z,1028.24
2018-12-31T01:33:09.871Z,1028.24
2018-12-31T01:33:10.468Z,1028.25
2018-12-31T01:33:11.064Z,1028.24
2018-12-31T01:33:11.663Z,1028.26
2018-12-31T01:33:12.264Z,1028.26
2018-12-31T01:33:12.864Z,1028.24
2018-12-31T01:34:07.368Z,1028.23
2018-12-31T01:34:07.941Z,1028.23
2018-12-31T01:34:08.546Z,1028.20
2018-12-31T01:34:09.141Z,1028.19
2018-12-31T01:34:09.741Z,1028.21
2018-12-31T01:34:10.343Z,1028.23
2018-12-31T01:34:10.940Z,1028.24
2018-12-31T01:34:11.540Z,1028.21
2018-12-31T01:35:06.020Z,1028.24
2018-12-31T01:35:06.619Z,1028.23
2018-12-31T01:35:07.217Z,1028.23
2018-12-31T01:35:07.817Z,1028.26
2018-12-31T01:35:08.415Z,1028.22
2018-12-31T01:35:09.018Z,1028.21
2018-12-31T01:35:09.617Z,1028.20
2018-12-31T01:35:10.217Z,1028.20
2018-12-31T01:36:03.673Z,1028.26
2018-12-31T01:36:04.270Z,1028.25
2018-12-31T01:36:04.870Z,1028.24
2018-12-31T01:36:05.470Z,1028.24
2018-12-31T01:36:06.069Z,1028.24
2018-12-31T01:36:06.672Z,1028.24
2018-12-31T01:36:07.268Z,1028.23
2018-12-31T01:36:07.868Z,1028.25
2018-12-31T01:37:02.347Z,1028.25
2018-12-31T01:37:02.945Z,1028.24
2018-12-31T01:37:03.545Z,1028.23
2018-12-31T01:37:04.145Z,1028.20
2018-12-31T01:37:04.744Z,1028.24
2018-12-31T01:37:05.345Z,1028.23
2018-12-31T01:37:05.944Z,1028.24
2018-12-31T01:37:06.545Z,1028.26
2018-12-31T01:38:01.022Z,1028.25
2018-12-31T01:38:01.621Z,1028.24
2018-12-31T01:38:02.220Z,1028.25
2018-12-31T01:38:02.819Z,1028.26
2018-12-31T01:38:03.420Z,1028.27
2018-12-31T01:38:04.020Z,1028.22
2018-12-31T01:38:04.618Z,1028.22
2018-12-31T01:38:05.219Z,1028.24
2018-12-31T01:38:58.706Z,1028.24
2018-12-31T01:38:59.273Z,1028.25
2018-12-31T01:38:59.871Z,1028.23
2018-12-31T01:39:00.473Z,1028.25
2018-12-31T01:39:01.071Z,1028.23
2018-12-31T01:39:01.671Z,1028.25
2018-12-31T01:39:02.272Z,1028.23
2018-12-31T01:39:02.870Z,1028.25
2018-12-31T01:39:57.350Z,1028.20
2018-12-31T01:39:57.948Z,1028.25
2018-12-31T01:39:58.547Z,1028.23
2018-12-31T01:39:59.147Z,1028.23
2018-12-31T01:39:59.747Z,1028.22
2018-12-31T01:40:00.350Z,1028.23
2018-12-31T01:40:00.948Z,1028.21
2018-12-31T01:40:01.547Z,1028.21
2018-12-31T01:40:55.003Z,1028.27
2018-12-31T01:40:55.600Z,1028.26
2018-12-31T01:40:56.200Z,1028.25
2018-12-31T01:40:56.798Z,1028.25
2018-12-31T01:40:57.398Z,1028.21
2018-12-31T01:40:58.002Z,1028.22
2018-12-31T01:40:58.602Z,1028.22
2018-12-31T01:40:59.198Z,1028.20
2018-12-31T01:41:53.678Z,1028.22
2018-12-31T01:41:54.274Z,1028.21
2018-12-31T01:41:54.876Z,1028.23
2018-12-31T01:41:55.475Z,1028.23
2018-12-31T01:41:56.074Z,1028.21
2018-12-31T01:41:56.678Z,1028.20
2018-12-31T01:41:57.274Z,1028.21
2018-12-31T01:41:57.874Z,1028.23
2018-12-31T01:42:51.330Z,1028.25
2018-12-31T01:42:51.927Z,1028.21
2018-12-31T01:42:52.528Z,1028.22
2018-12-31T01:42:53.127Z,1028.23
2018-12-31T01:42:53.727Z,1028.19
2018-12-31T01:42:54.327Z,1028.19
2018-12-31T01:42:54.928Z,1028.20
2018-12-31T01:42:55.526Z,1028.23
2018-12-31T01:43:50.005Z,1028.24
2018-12-31T01:43:50.603Z,1028.24
2018-12-31T01:43:51.202Z,1028.21
2018-12-31T01:43:51.807Z,1028.20
2018-12-31T01:43:52.403Z,1028.23
2018-12-31T01:43:53.002Z,1028.20
2018-12-31T01:43:53.600Z,1028.19
2018-12-31T01:43:54.201Z,1028.25
2018-12-31T01:44:48.711Z,1028.21
2018-12-31T01:44:49.280Z,1028.20
2018-12-31T01:44:49.883Z,1028.22
2018-12-31T01:44:50.478Z,1028.20
2018-12-31T01:44:51.078Z,1028.22
2018-12-31T01:44:51.677Z,1028.18
2018-12-31T01:44:52.279Z,1028.23
2018-12-31T01:44:52.877Z,1028.20
2018-12-31T01:45:46.333Z,1028.24
2018-12-31T01:45:46.934Z,1028.17
2018-12-31T01:45:47.530Z,1028.18
2018-12-31T01:45:48.131Z,1028.22
2018-12-31T01:45:48.732Z,1028.17
2018-12-31T01:45:49.329Z,1028.19
2018-12-31T01:45:49.930Z,1028.19
2018-12-31T01:45:50.530Z,1028.19
2018-12-31T01:46:45.007Z,1028.22
2018-12-31T01:46:45.608Z,1028.19
2018-12-31T01:46:46.206Z,1028.16
2018-12-31T01:46:46.806Z,1028.17
2018-12-31T01:46:47.408Z,1028.17
2018-12-31T01:46:48.005Z,1028.19
2018-12-31T01:46:48.605Z,1028.20
2018-12-31T01:46:49.205Z,1028.21
2018-12-31T01:47:43.685Z,1028.22
2018-12-31T01:47:44.281Z,1028.22
2018-12-31T01:47:44.882Z,1028.18
2018-12-31T01:47:45.483Z,1028.22
2018-12-31T01:47:46.080Z,1028.24
2018-12-31T01:47:46.681Z,1028.19
2018-12-31T01:47:47.279Z,1028.22
2018-12-31T01:47:47.880Z,1028.18
2018-12-31T01:48:42.360Z,1028.23
2018-12-31T01:48:42.957Z,1028.22
2018-12-31T01:48:43.559Z,1028.20
2018-12-31T01:48:44.156Z,1028.21
2018-12-31T01:48:44.758Z,1028.18
2018-12-31T01:48:45.356Z,1028.20
2018-12-31T01:48:46.038Z,1028.21
2018-12-31T01:48:46.557Z,1028.21
2018-12-31T01:49:40.012Z,1028.23
2018-12-31T01:49:40.695Z,1028.21
2018-12-31T01:49:41.209Z,1028.24
2018-12-31T01:49:41.810Z,1028.20
2018-12-31T01:49:42.408Z,1028.21
2018-12-31T01:49:43.008Z,1028.21
2018-12-31T01:49:43.608Z,1028.19
2018-12-31T01:49:44.210Z,1028.20
2018-12-31T01:50:37.687Z,1028.20
2018-12-31T01:50:38.259Z,1028.20
2018-12-31T01:50:38.861Z,1028.19
2018-12-31T01:50:39.459Z,1028.20
2018-12-31T01:50:40.061Z,1028.21
2018-12-31T01:50:40.660Z,1028.24
2018-12-31T01:50:41.260Z,1028.19
2018-12-31T01:50:41.859Z,1028.17
2018-12-31T01:51:36.343Z,1028.22
2018-12-31T01:51:36.935Z,1028.22
2018-12-31T01:51:37.536Z,1028.18
2018-12-31T01:51:38.135Z,1028.21
2018-12-31T01:51:38.734Z,1028.22
2018-12-31T01:51:39.335Z,1028.22
2018-12-31T01:51:39.935Z,1028.19
2018-12-31T01:51:40.535Z,1028.21
2018-12-31T01:52:35.014Z,1028.19
2018-12-31T01:52:35.612Z,1028.18
2018-12-31T01:52:36.212Z,1028.20
2018-12-31T01:52:36.811Z,1028.24
2018-12-31T01:52:37.414Z,1028.20
2018-12-31T01:52:38.012Z,1028.20
2018-12-31T01:52:38.610Z,1028.20
2018-12-31T01:52:39.210Z,1028.18
2018-12-31T01:53:32.665Z,1028.19
2018-12-31T01:53:33.265Z,1028.18
2018-12-31T01:53:33.864Z,1028.17
2018-12-31T01:53:34.463Z,1028.17
2018-12-31T01:53:35.064Z,1028.22
2018-12-31T01:53:35.663Z,1028.19
2018-12-31T01:53:36.262Z,1028.18
2018-12-31T01:53:36.864Z,1028.13
2018-12-31T01:54:31.341Z,1028.17
2018-12-31T01:54:31.964Z,1028.17
2018-12-31T01:54:32.539Z,1028.17
2018-12-31T01:54:33.139Z,1028.15
2018-12-31T01:54:33.738Z,1028.18
2018-12-31T01:54:34.341Z,1028.16
2018-12-31T01:54:34.938Z,1028.16
2018-12-31T01:54:35.538Z,1028.17
2018-12-31T01:55:28.994Z,1028.17
2018-12-31T01:55:29.591Z,1028.13
2018-12-31T01:55:30.192Z,1028.16
2018-12-31T01:55:30.791Z,1028.15
2018-12-31T01:55:31.390Z,1028.17
2018-12-31T01:55:31.994Z,1028.12
2018-12-31T01:55:32.591Z,1028.17
2018-12-31T01:55:33.190Z,1028.19
2018-12-31T01:56:27.693Z,1028.18
2018-12-31T01:56:28.265Z,1028.16
2018-12-31T01:56:28.865Z,1028.17
2018-12-31T01:56:29.465Z,1028.18
2018-12-31T01:56:30.065Z,1028.15
2018-12-31T01:56:30.665Z,1028.13
2018-12-31T01:56:31.266Z,1028.14
2018-12-31T01:56:31.867Z,1028.17
2018-12-31T01:57:26.368Z,1028.14
2018-12-31T01:57:26.943Z,1028.17
2018-12-31T01:57:27.544Z,1028.16
2018-12-31T01:57:28.141Z,1028.18
2018-12-31T01:57:28.741Z,1028.15